Time;durP1;ratioP1;P1;durP2;ratioP2;P2;SDS_P1;SDS_P2;PMS_P1;PMS_P2;Temp;Humidity;BMP_temperature;BMP_pressure;BME280_temperature;BME280_humidity;BME280_pressure;Samples;Min_cycle;Max_cycle;Signal;HPM_P1;HPM_P2
2024/01/12 00:01:44;;;;;;;14.43;4.88;;;2.40;99.90;;;;;;5078511;28;20051;-62
2024/01/12 00:04:10;;;;;;;15.30;4.78;;;1.30;99.90;;;;;;5076689;28;20033;-62
2024/01/12 00:06:36;;;;;;;10.00;3.78;;;1.30;99.90;;;;;;5078469;28;20113;-62
2024/01/12 00:09:03;;;;;;;10.93;4.60;;;3.00;99.90;;;;;;5060661;28;20129;-62
2024/01/12 00:11:29;;;;;;;9.55;3.13;;;2.70;99.90;;;;;;5060644;28;20048;-62
2024/01/12 00:13:55;;;;;;;12.23;4.35;;;2.90;99.90;;;;;;5081532;28;20051;-62
2024/01/12 00:16:21;;;;;;;10.02;3.97;;;2.90;99.90;;;;;;5082246;28;20040;-62
2024/01/12 00:18:46;;;;;;;9.68;3.25;;;1.60;99.90;;;;;;5064289;28;20036;-62
2024/01/12 00:21:12;;;;;;;8.27;3.35;;;2.90;99.90;;;;;;5081771;28;20152;-61
2024/01/12 00:23:38;;;;;;;11.10;3.85;;;1.40;99.90;;;;;;5082557;28;20100;-62
2024/01/12 00:26:04;;;;;;;12.40;3.60;;;2.90;99.90;;;;;;5082315;28;20051;-62
2024/01/12 00:28:30;;;;;;;11.98;3.97;;;3.00;99.90;;;;;;5082050;28;20055;-62
2024/01/12 00:30:56;;;;;;;7.55;4.28;;;1.40;99.90;;;;;;5082602;28;20048;-62
2024/01/12 00:33:22;;;;;;;12.48;3.83;;;2.90;99.90;;;;;;5064044;28;20040;-62
2024/01/12 00:35:48;;;;;;;13.27;3.53;;;1.60;99.90;;;;;;5082054;28;20037;-62
2024/01/12 00:38:14;;;;;;;10.25;3.58;;;2.80;99.90;;;;;;5063827;28;20527;-63
2024/01/12 00:40:40;;;;;;;11.32;3.17;;;1.50;99.90;;;;;;5081915;28;20041;-62
2024/01/12 00:43:07;;;;;;;9.95;3.17;;;1.50;99.90;;;;;;5081990;28;20040;-62
2024/01/12 00:45:33;;;;;;;8.80;2.67;;;1.50;99.90;;;;;;5081840;28;20040;-62
2024/01/12 00:47:59;;;;;;;10.30;3.17;;;3.00;99.90;;;;;;5064265;28;20064;-62
2024/01/12 00:50:24;;;;;;;15.18;3.10;;;1.50;99.90;;;;;;5063501;28;20411;-62
2024/01/12 00:52:50;;;;;;;8.32;3.50;;;2.90;99.90;;;;;;5081787;28;20082;-62
2024/01/12 00:55:16;;;;;;;9.25;3.10;;;2.80;99.90;;;;;;5063456;28;20044;-62
2024/01/12 00:57:41;;;;;;;9.85;3.15;;;2.80;99.90;;;;;;5063721;28;20072;-63
2024/01/12 01:00:07;;;;;;;8.85;3.20;;;2.20;99.90;;;;;;5063499;28;20151;-62
2024/01/12 01:02:33;;;;;;;7.20;2.33;;;1.50;99.90;;;;;;5081525;28;20313;-62
2024/01/12 01:04:59;;;;;;;10.88;2.97;;;2.70;99.90;;;;;;5081273;28;20079;-62
2024/01/12 01:07:24;;;;;;;9.07;2.60;;;2.20;99.90;;;;;;5081666;28;20055;-62
2024/01/12 01:09:50;;;;;;;10.43;2.85;;;1.90;99.90;;;;;;5081510;28;20122;-62
2024/01/12 01:12:16;;;;;;;7.82;3.13;;;1.80;99.90;;;;;;5063393;28;20036;-62
2024/01/12 01:14:41;;;;;;;8.10;2.80;;;1.50;99.90;;;;;;5063306;28;20127;-62
2024/01/12 01:17:07;;;;;;;7.97;3.25;;;2.40;99.90;;;;;;5081287;28;20505;-62
2024/01/12 01:19:35;;;;;;;11.07;3.05;;;1.00;99.90;;;;;;5081474;28;20056;-61
2024/01/12 01:22:00;;;;;;;8.93;2.88;;;2.30;99.90;;;;;;5063201;28;20074;-62
2024/01/12 01:24:29;;;;;;;11.38;2.72;;;2.30;99.90;;;;;;5079961;28;20520;-61
2024/01/12 01:26:55;;;;;;;8.63;2.67;;;1.40;99.90;;;;;;5081268;28;20071;-61
2024/01/12 01:29:21;;;;;;;7.30;2.75;;;0.90;99.90;;;;;;5080722;28;20041;-63
2024/01/12 01:31:48;;;;;;;8.18;2.78;;;0.90;99.90;;;;;;5062872;28;20068;-63
2024/01/12 01:34:14;;;;;;;12.50;3.30;;;0.90;99.90;;;;;;5062537;28;20051;-62
2024/01/12 01:36:40;;;;;;;6.78;2.50;;;1.00;99.90;;;;;;5081121;28;20085;-62
2024/01/12 01:39:06;;;;;;;9.75;3.03;;;0.80;99.90;;;;;;5081169;28;20119;-61
2024/01/12 01:41:32;;;;;;;9.88;3.00;;;1.90;99.90;;;;;;5081049;28;20427;-62
2024/01/12 01:43:57;;;;;;;8.93;2.80;;;2.30;99.90;;;;;;5080849;28;20082;-61
2024/01/12 01:46:25;;;;;;;6.70;2.47;;;1.30;99.90;;;;;;5080606;28;20048;-61
2024/01/12 01:48:51;;;;;;;9.93;2.60;;;1.00;99.90;;;;;;5080258;28;20040;-61
2024/01/12 01:51:17;;;;;;;7.50;2.70;;;1.60;99.90;;;;;;5062436;28;20104;-60
2024/01/12 01:53:43;;;;;;;9.77;3.00;;;2.30;99.90;;;;;;5080703;28;20088;-61
2024/01/12 01:56:11;;;;;;;8.00;3.08;;;2.40;99.90;;;;;;5079023;28;20044;-61
2024/01/12 01:58:36;;;;;;;11.50;2.85;;;2.40;99.90;;;;;;5062970;28;20045;-62
2024/01/12 02:01:03;;;;;;;15.05;3.33;;;1.40;99.90;;;;;;5080598;28;20103;-62
2024/01/12 02:03:29;;;;;;;10.38;2.78;;;2.40;99.90;;;;;;5079849;28;20036;-62
2024/01/12 02:05:57;;;;;;;8.82;2.80;;;2.40;99.90;;;;;;5045143;28;20053;-62
2024/01/12 02:08:24;;;;;;;7.25;2.55;;;2.30;99.90;;;;;;5080308;28;20055;-61
2024/01/12 02:10:52;;;;;;;12.25;3.38;;;1.00;99.90;;;;;;5062267;28;20044;-61
2024/01/12 02:13:18;;;;;;;8.75;3.10;;;1.20;99.90;;;;;;5080386;28;20056;-62
2024/01/12 02:15:44;;;;;;;10.85;3.47;;;1.10;99.90;;;;;;5080304;28;20041;-61
2024/01/12 02:18:10;;;;;;;9.25;2.95;;;1.10;99.90;;;;;;5080010;28;20097;-61
2024/01/12 02:20:36;;;;;;;8.25;3.15;;;1.40;99.90;;;;;;5079917;28;20043;-62
2024/01/12 02:23:01;;;;;;;13.80;3.08;;;2.30;99.90;;;;;;5061927;28;20132;-62
2024/01/12 02:25:27;;;;;;;10.02;3.08;;;0.80;99.90;;;;;;5079780;28;20128;-62
2024/01/12 02:27:53;;;;;;;7.20;2.80;;;2.20;99.90;;;;;;5061924;28;20053;-61
2024/01/12 02:30:19;;;;;;;10.15;3.10;;;2.20;99.90;;;;;;5080061;28;20048;-62
2024/01/12 02:32:44;;;;;;;8.15;2.80;;;1.10;99.90;;;;;;5079871;28;20078;-62
2024/01/12 02:35:10;;;;;;;11.45;3.40;;;0.70;99.90;;;;;;5079358;28;20135;-62
2024/01/12 02:37:36;;;;;;;9.57;3.35;;;2.10;99.90;;;;;;5079662;28;20040;-62
2024/01/12 02:40:02;;;;;;;10.35;2.90;;;1.50;99.90;;;;;;5061642;28;20096;-61
2024/01/12 02:42:28;;;;;;;9.73;2.83;;;1.80;99.90;;;;;;5079385;28;20087;-62
2024/01/12 02:44:53;;;;;;;14.38;4.07;;;2.10;99.90;;;;;;5079785;28;20055;-62
2024/01/12 02:47:19;;;;;;;10.02;3.00;;;2.20;99.90;;;;;;5044761;28;20074;-62
2024/01/12 02:49:45;;;;;;;13.57;3.42;;;2.00;99.90;;;;;;5079831;28;20062;-61
2024/01/12 02:52:10;;;;;;;8.30;2.67;;;1.10;99.90;;;;;;5079590;28;20058;-61
2024/01/12 02:54:36;;;;;;;7.97;2.78;;;2.40;99.90;;;;;;5061486;28;20115;-61
2024/01/12 02:57:02;;;;;;;7.40;2.58;;;2.10;99.90;;;;;;5044470;28;20048;-61
2024/01/12 02:59:27;;;;;;;13.68;2.90;;;2.30;99.90;;;;;;5079129;28;20128;-62
2024/01/12 03:01:53;;;;;;;9.80;2.70;;;1.50;99.90;;;;;;5061080;28;20048;-61
2024/01/12 03:04:19;;;;;;;12.50;2.90;;;2.50;99.90;;;;;;5078863;28;20044;-60
2024/01/12 03:06:44;;;;;;;10.60;3.92;;;1.20;99.90;;;;;;5041254;28;20109;-62
2024/01/12 03:09:10;;;;;;;9.93;3.45;;;2.50;99.90;;;;;;5059399;28;20056;-59
2024/01/12 03:11:36;;;;;;;8.57;2.90;;;2.50;99.90;;;;;;5059200;28;20546;-61
2024/01/12 03:14:01;;;;;;;7.13;2.50;;;1.00;99.90;;;;;;5058873;28;20044;-61
2024/01/12 03:16:27;;;;;;;10.02;3.40;;;2.40;99.90;;;;;;5057420;28;20044;-61
2024/01/12 03:18:53;;;;;;;7.75;2.72;;;1.40;99.90;;;;;;5058650;28;20049;-61
2024/01/12 03:21:19;;;;;;;8.75;2.58;;;1.00;99.90;;;;;;5058667;28;20077;-61
2024/01/12 03:23:44;;;;;;;8.65;3.00;;;1.00;99.90;;;;;;5059076;28;20129;-62
2024/01/12 03:26:10;;;;;;;12.82;3.30;;;2.50;99.90;;;;;;5057682;28;20051;-61
2024/01/12 03:28:36;;;;;;;10.75;3.00;;;1.60;99.90;;;;;;5059137;28;20048;-62
2024/01/12 03:31:03;;;;;;;9.23;2.65;;;0.90;99.90;;;;;;5058498;28;20045;-62
2024/01/12 03:33:29;;;;;;;8.95;3.10;;;1.90;99.90;;;;;;5057303;28;20094;-62
2024/01/12 03:35:55;;;;;;;10.50;2.83;;;2.50;99.90;;;;;;5058307;28;20048;-61
2024/01/12 03:38:20;;;;;;;8.30;3.03;;;2.10;99.90;;;;;;5058489;28;20037;-61
2024/01/12 03:40:47;;;;;;;9.85;2.58;;;2.20;99.90;;;;;;5058858;28;20043;-62
2024/01/12 03:43:12;;;;;;;7.32;3.40;;;1.30;99.90;;;;;;5058691;28;20041;-62
2024/01/12 03:45:38;;;;;;;8.95;3.25;;;1.60;99.90;;;;;;5058791;28;20113;-61
2024/01/12 03:48:04;;;;;;;12.25;3.42;;;2.30;99.90;;;;;;5058262;28;20037;-62
2024/01/12 03:50:29;;;;;;;11.30;3.58;;;1.20;99.90;;;;;;5058587;28;20105;-61
2024/01/12 03:52:55;;;;;;;10.95;3.28;;;1.60;99.90;;;;;;5058383;28;20064;-62
2024/01/12 03:55:21;;;;;;;10.48;3.42;;;2.70;99.90;;;;;;5058282;28;20075;-62
2024/01/12 03:57:46;;;;;;;10.80;3.08;;;1.10;99.90;;;;;;5057125;28;20392;-62
2024/01/12 04:00:12;;;;;;;9.27;2.88;;;1.00;99.90;;;;;;5056935;28;20520;-61
2024/01/12 04:02:38;;;;;;;7.47;3.15;;;2.40;99.90;;;;;;5057327;28;20464;-62
2024/01/12 04:05:04;;;;;;;8.90;3.95;;;2.50;99.90;;;;;;5058810;28;20045;-62
2024/01/12 04:07:30;;;;;;;9.73;3.00;;;0.90;99.90;;;;;;5078380;28;20126;-62
2024/01/12 04:09:56;;;;;;;8.30;2.65;;;0.80;99.90;;;;;;5078272;28;20040;-62
2024/01/12 04:12:21;;;;;;;9.48;2.90;;;1.70;99.90;;;;;;5078327;28;20037;-62
2024/01/12 04:14:47;;;;;;;9.80;3.60;;;1.10;99.90;;;;;;5077801;28;20040;-61
2024/01/12 04:17:13;;;;;;;9.45;2.75;;;0.90;99.90;;;;;;5078698;28;20072;-62
2024/01/12 04:19:39;;;;;;;8.63;2.85;;;1.00;99.90;;;;;;5078497;28;20093;-62
2024/01/12 04:22:04;;;;;;;9.85;3.03;;;1.90;99.90;;;;;;5078616;28;20036;-62
2024/01/12 04:24:30;;;;;;;9.05;3.92;;;2.60;99.90;;;;;;5078268;28;20036;-61
2024/01/12 04:26:57;;;;;;;9.07;3.95;;;2.00;99.90;;;;;;5060166;28;20075;-62
2024/01/12 04:29:22;;;;;;;13.13;3.88;;;2.60;99.90;;;;;;5077906;28;20045;-61
2024/01/12 04:31:48;;;;;;;12.23;4.32;;;1.10;99.90;;;;;;5059776;28;20101;-62
2024/01/12 04:34:15;;;;;;;9.98;3.65;;;1.00;99.90;;;;;;5060012;28;20070;-62
2024/01/12 04:36:41;;;;;;;12.40;4.20;;;1.00;99.90;;;;;;5060337;28;20128;-62
2024/01/12 04:39:06;;;;;;;11.55;3.97;;;2.50;99.90;;;;;;5076986;28;20523;-62
2024/01/12 04:41:32;;;;;;;13.10;4.47;;;1.30;99.90;;;;;;5076709;28;20067;-61
2024/01/12 04:43:58;;;;;;;12.18;4.50;;;2.60;99.90;;;;;;5043577;28;20049;-61
2024/01/12 04:46:23;;;;;;;11.32;3.78;;;2.50;99.90;;;;;;5077951;28;20065;-62
2024/01/12 04:48:49;;;;;;;12.00;4.22;;;1.40;99.90;;;;;;5078005;28;20055;-62
2024/01/12 04:51:15;;;;;;;12.50;4.00;;;1.00;99.90;;;;;;5059870;28;20051;-62
2024/01/12 04:53:40;;;;;;;8.18;3.70;;;1.00;99.90;;;;;;5078180;28;20309;-62
2024/01/12 04:56:06;;;;;;;10.85;4.03;;;0.90;99.90;;;;;;5078515;28;20104;-62
2024/01/12 04:58:32;;;;;;;9.68;4.20;;;1.50;99.90;;;;;;5076468;28;20049;-61
2024/01/12 05:00:58;;;;;;;13.07;4.97;;;2.60;99.90;;;;;;5079460;28;20068;-62
2024/01/12 05:03:24;;;;;;;11.43;4.40;;;2.40;99.90;;;;;;5063343;28;20041;-62
2024/01/12 05:05:49;;;;;;;12.35;4.70;;;1.70;99.90;;;;;;5063155;28;20055;-62
2024/01/12 05:08:15;;;;;;;14.82;4.32;;;1.60;99.90;;;;;;5081342;28;20098;-62
2024/01/12 05:10:41;;;;;;;10.63;4.57;;;1.00;99.90;;;;;;5063616;28;20036;-62
2024/01/12 05:13:06;;;;;;;11.52;4.28;;;1.10;99.90;;;;;;5046953;28;20048;-62
2024/01/12 05:15:32;;;;;;;13.30;4.18;;;1.00;99.90;;;;;;5081633;28;20082;-62
2024/01/12 05:17:58;;;;;;;13.25;4.32;;;1.20;99.90;;;;;;5046701;28;20032;-62
2024/01/12 05:20:25;;;;;;;10.13;4.30;;;2.60;99.90;;;;;;5081137;28;20087;-61
2024/01/12 05:22:50;;;;;;;16.25;5.95;;;2.00;99.90;;;;;;5081033;28;20052;-62
2024/01/12 05:25:16;;;;;;;13.57;5.20;;;1.20;99.90;;;;;;5080966;28;20071;-61
2024/01/12 05:27:42;;;;;;;11.65;5.25;;;1.50;99.90;;;;;;5080858;28;20044;-62
2024/01/12 05:30:08;;;;;;;11.80;5.18;;;1.30;99.90;;;;;;5063198;28;20067;-62
2024/01/12 05:32:34;;;;;;;13.73;5.18;;;1.60;99.90;;;;;;5046723;28;20127;-62
2024/01/12 05:34:59;;;;;;;12.38;5.30;;;2.80;99.90;;;;;;5063201;28;20533;-62
2024/01/12 05:37:25;;;;;;;14.75;5.20;;;1.40;99.90;;;;;;5080946;28;20071;-62
2024/01/12 05:39:51;;;;;;;15.20;5.20;;;1.80;99.90;;;;;;5080751;28;20088;-62
2024/01/12 05:42:16;;;;;;;10.32;4.50;;;1.90;99.90;;;;;;5045636;28;20094;-62
2024/01/12 05:44:42;;;;;;;13.18;4.53;;;2.10;99.90;;;;;;5080927;28;20053;-62
2024/01/12 05:47:08;;;;;;;14.57;4.75;;;2.80;99.90;;;;;;5080641;28;20037;-62
2024/01/12 05:49:36;;;;;;;16.10;4.55;;;2.90;99.90;;;;;;5080984;28;20037;-62
2024/01/12 05:52:02;;;;;;;12.43;4.72;;;2.80;99.90;;;;;;5080882;28;20045;-62
2024/01/12 05:54:27;;;;;;;13.80;4.90;;;1.00;99.90;;;;;;5046232;28;20047;-62
2024/01/12 05:56:53;;;;;;;12.07;4.43;;;1.70;99.90;;;;;;5080370;28;20048;-62
2024/01/12 05:59:19;;;;;;;15.40;4.15;;;3.00;99.90;;;;;;5080503;28;20079;-62
2024/01/12 06:01:44;;;;;;;21.00;4.88;;;2.10;99.90;;;;;;5078697;28;20053;-62
2024/01/12 06:04:10;;;;;;;8.75;3.92;;;3.00;99.90;;;;;;5080511;28;20049;-61
2024/01/12 06:06:35;;;;;;;15.60;4.15;;;2.60;99.90;;;;;;5080187;28;20052;-61
2024/01/12 06:09:01;;;;;;;14.32;4.38;;;2.60;99.90;;;;;;5080806;28;20033;-61
2024/01/12 06:11:27;;;;;;;14.25;4.80;;;1.60;99.90;;;;;;5079552;28;20051;-61
2024/01/12 06:13:53;;;;;;;17.80;4.55;;;1.20;99.90;;;;;;5045652;28;20041;-61
2024/01/12 06:16:18;;;;;;;16.33;4.65;;;3.00;99.90;;;;;;5079914;28;20115;-62
2024/01/12 06:18:44;;;;;;;14.05;5.38;;;3.30;99.90;;;;;;5079022;28;20052;-61
2024/01/12 06:21:09;;;;;;;12.85;4.15;;;1.10;99.90;;;;;;5077539;28;20120;-61
2024/01/12 06:23:35;;;;;;;10.40;4.30;;;2.80;99.90;;;;;;5058028;28;20041;-62
2024/01/12 06:26:01;;;;;;;14.25;4.22;;;1.10;99.90;;;;;;5058082;28;20043;-61
2024/01/12 06:28:27;;;;;;;14.50;4.40;;;1.20;99.90;;;;;;5058370;28;20059;-61
2024/01/12 06:30:55;;;;;;;9.00;4.28;;;2.80;99.90;;;;;;5076197;28;20045;-61
2024/01/12 06:33:21;;;;;;;18.60;4.32;;;2.70;99.90;;;;;;5075309;28;20098;-61
2024/01/12 06:35:46;;;;;;;16.35;4.18;;;1.20;99.90;;;;;;5075726;28;20044;-61
2024/01/12 06:38:12;;;;;;;16.25;4.75;;;1.20;99.90;;;;;;5075804;28;20048;-61
2024/01/12 06:40:38;;;;;;;16.73;3.13;;;1.50;99.90;;;;;;5057993;28;20047;-62
2024/01/12 06:43:04;;;;;;;18.17;4.05;;;1.40;99.90;;;;;;5075994;28;20052;-62
2024/01/12 06:45:30;;;;;;;11.60;3.10;;;3.20;99.90;;;;;;5075185;28;20084;-62
2024/01/12 06:47:56;;;;;;;16.70;3.40;;;3.20;99.90;;;;;;5040984;28;20059;-64
2024/01/12 06:50:21;;;;;;;15.10;3.53;;;3.10;99.90;;;;;;5075174;28;20108;-62
2024/01/12 06:52:47;;;;;;;15.85;2.50;;;3.20;99.90;;;;;;5075413;28;20044;-62
2024/01/12 06:55:13;;;;;;;11.65;1.92;;;1.60;99.90;;;;;;5057402;28;20051;-62
2024/01/12 06:57:38;;;;;;;13.65;2.40;;;2.90;99.90;;;;;;5073706;28;20043;-62
2024/01/12 07:00:06;;;;;;;10.55;2.08;;;2.70;99.90;;;;;;5075631;28;20125;-62
2024/01/12 07:02:33;;;;;;;9.52;2.42;;;1.60;99.90;;;;;;5075690;28;20055;-61
2024/01/12 07:04:59;;;;;;;11.55;2.00;;;3.20;99.90;;;;;;5057220;28;20051;-62
2024/01/12 07:07:25;;;;;;;16.88;2.53;;;1.60;99.90;;;;;;5075534;28;20053;-62
2024/01/12 07:09:51;;;;;;;9.88;1.70;;;1.90;99.90;;;;;;5056372;28;20660;-62
2024/01/12 07:12:16;;;;;;;13.18;1.58;;;3.40;99.90;;;;;;5075111;28;20271;-61
2024/01/12 07:14:42;;;;;;;8.35;1.70;;;3.30;99.90;;;;;;5057096;28;20075;-63
2024/01/12 07:17:08;;;;;;;11.85;1.95;;;2.00;99.90;;;;;;5075148;28;20102;-62
2024/01/12 07:19:33;;;;;;;12.07;2.30;;;3.90;99.90;;;;;;5041014;28;20086;-62
2024/01/12 07:21:59;;;;;;;7.95;1.50;;;2.10;99.90;;;;;;5056401;28;20127;-62
2024/01/12 07:24:25;;;;;;;9.73;1.38;;;3.50;99.90;;;;;;5073974;28;20040;-62
2024/01/12 07:26:50;;;;;;;14.98;1.70;;;2.60;99.90;;;;;;5073957;28;20048;-62
2024/01/12 07:29:16;;;;;;;10.95;1.75;;;2.30;99.90;;;;;;5080848;28;20104;-62
2024/01/12 07:31:42;;;;;;;11.73;1.77;;;3.20;99.90;;;;;;5064459;28;20538;-62
2024/01/12 07:34:08;;;;;;;11.13;1.35;;;3.20;99.90;;;;;;5073912;28;20033;-61
2024/01/12 07:36:34;;;;;;;9.63;1.40;;;3.70;99.90;;;;;;5075185;28;20056;-60
2024/01/12 07:39:00;;;;;;;13.10;1.92;;;2.60;99.90;;;;;;5074783;28;20149;-62
2024/01/12 07:41:26;;;;;;;12.93;2.47;;;3.50;99.90;;;;;;5074335;28;20531;-62
2024/01/12 07:43:53;;;;;;;16.55;3.80;;;3.80;99.90;;;;;;5055566;28;20041;-62
2024/01/12 07:46:19;;;;;;;15.80;2.40;;;2.40;99.90;;;;;;5074192;28;20104;-62
2024/01/12 07:48:49;;;;;;;9.70;1.95;;;2.50;99.90;;;;;;5056778;28;20147;-62
2024/01/12 07:51:15;;;;;;;10.10;1.70;;;2.50;99.90;;;;;;5040280;28;20084;-62
2024/01/12 07:53:41;;;;;;;10.30;1.67;;;2.90;99.90;;;;;;5074319;28;20105;-62
2024/01/12 07:56:07;;;;;;;8.38;1.70;;;3.40;99.90;;;;;;5074935;28;20072;-62
2024/01/12 07:58:33;;;;;;;8.23;1.17;;;3.00;99.90;;;;;;5074487;28;20463;-62
2024/01/12 08:00:59;;;;;;;11.13;2.63;;;3.60;99.90;;;;;;5056716;28;20044;-62
2024/01/12 08:03:24;;;;;;;12.55;1.50;;;3.30;99.90;;;;;;5056496;28;20128;-62
2024/01/12 08:05:51;;;;;;;13.85;2.03;;;3.70;99.90;;;;;;5052185;28;20060;-62
2024/01/12 08:08:18;;;;;;;13.70;1.80;;;2.50;99.90;;;;;;5054282;28;20158;-62
2024/01/12 08:10:45;;;;;;;9.82;1.42;;;2.60;99.90;;;;;;5056197;28;20062;-60
2024/01/12 08:13:10;;;;;;;16.02;1.70;;;3.80;99.90;;;;;;5057194;28;20041;-62
2024/01/12 08:15:36;;;;;;;10.50;1.77;;;3.30;99.90;;;;;;5056742;28;20100;-62
2024/01/12 08:18:02;;;;;;;12.43;1.52;;;2.60;99.90;;;;;;5057868;28;20044;-62
2024/01/12 08:20:28;;;;;;;11.80;2.58;;;2.50;99.90;;;;;;5056290;28;20045;-62
2024/01/12 08:22:53;;;;;;;13.20;2.00;;;2.70;99.90;;;;;;5056471;28;20037;-62
2024/01/12 08:25:19;;;;;;;14.20;2.00;;;3.70;99.90;;;;;;5057460;28;20045;-62
2024/01/12 08:27:45;;;;;;;16.60;3.53;;;2.70;99.90;;;;;;5056656;28;20051;-62
2024/01/12 08:30:11;;;;;;;16.17;2.20;;;3.40;99.90;;;;;;5058350;28;20052;-62
2024/01/12 08:32:37;;;;;;;15.52;1.83;;;3.10;99.90;;;;;;5057120;28;20071;-62
2024/01/12 08:35:02;;;;;;;13.40;2.00;;;3.30;99.90;;;;;;5043211;28;20041;-62
2024/01/12 08:37:28;;;;;;;7.70;1.48;;;3.80;99.90;;;;;;5062135;28;20081;-62
2024/01/12 08:39:54;;;;;;;12.65;1.77;;;3.60;99.90;;;;;;5043991;28;20041;-62
2024/01/12 08:42:19;;;;;;;11.40;1.25;;;3.00;99.90;;;;;;5061896;28;20558;-62
2024/01/12 08:44:45;;;;;;;16.13;2.90;;;3.10;99.90;;;;;;5043892;28;20106;-62
2024/01/12 08:47:11;;;;;;;12.38;2.70;;;3.80;99.90;;;;;;5062209;28;20060;-62
2024/01/12 08:49:36;;;;;;;13.60;2.33;;;3.00;99.90;;;;;;5061887;28;20102;-62
2024/01/12 08:52:02;;;;;;;10.85;2.25;;;2.80;99.90;;;;;;5062192;28;20229;-62
2024/01/12 08:54:28;;;;;;;13.73;1.85;;;2.90;99.90;;;;;;5060551;28;20056;-62
2024/01/12 08:56:53;;;;;;;13.02;3.17;;;3.70;99.90;;;;;;5061607;28;20124;-62
2024/01/12 08:59:20;;;;;;;10.13;2.22;;;3.30;99.90;;;;;;5061705;28;20041;-63
2024/01/12 09:01:46;;;;;;;15.00;2.40;;;3.80;99.90;;;;;;5059887;28;20135;-62
2024/01/12 09:04:12;;;;;;;15.50;2.13;;;2.80;99.90;;;;;;5061385;28;20040;-62
2024/01/12 09:06:37;;;;;;;14.18;2.05;;;3.90;99.90;;;;;;5060155;28;20057;-62
2024/01/12 09:09:03;;;;;;;12.30;1.60;;;3.20;99.90;;;;;;5061945;28;20457;-62
2024/01/12 09:11:29;;;;;;;9.00;1.70;;;3.80;99.90;;;;;;5043155;28;20051;-62
2024/01/12 09:13:54;;;;;;;9.73;1.42;;;2.70;99.90;;;;;;5061501;28;20045;-62
2024/01/12 09:16:20;;;;;;;9.05;1.52;;;3.00;99.90;;;;;;5060962;28;20049;-62
2024/01/12 09:18:48;;;;;;;12.00;2.10;;;3.60;99.90;;;;;;5059727;28;20033;-62
2024/01/12 09:21:15;;;;;;;12.48;2.58;;;3.70;99.90;;;;;;5058887;28;20049;-62
2024/01/12 09:23:44;;;;;;;10.38;1.70;;;2.70;99.90;;;;;;5058934;28;20048;-62
2024/01/12 09:26:13;;;;;;;11.93;2.05;;;3.90;99.90;;;;;;5059416;28;20064;-61
2024/01/12 09:28:39;;;;;;;15.30;2.00;;;3.80;99.90;;;;;;5059240;28;20558;-62
2024/01/12 09:31:05;;;;;;;8.88;1.60;;;3.20;99.90;;;;;;5042079;28;20060;-62
2024/01/12 09:33:31;;;;;;;12.55;1.75;;;2.80;99.90;;;;;;5066740;28;20489;-62
2024/01/12 09:35:57;;;;;;;11.27;1.63;;;3.50;99.90;;;;;;5060074;28;20108;-62
2024/01/12 09:38:22;;;;;;;11.40;2.47;;;3.20;99.90;;;;;;5060640;28;20057;-62
2024/01/12 09:40:48;;;;;;;9.65;1.65;;;4.00;99.90;;;;;;5060269;28;20037;-62
2024/01/12 09:43:14;;;;;;;11.15;2.33;;;4.20;99.90;;;;;;5058734;28;20053;-62
2024/01/12 09:45:44;;;;;;;9.57;1.70;;;3.70;99.90;;;;;;5059678;28;20180;-62
2024/01/12 09:48:10;;;;;;;14.27;2.50;;;4.10;99.90;;;;;;5050288;28;20048;-62
2024/01/12 09:50:36;;;;;;;9.50;1.52;;;3.10;99.90;;;;;;5059837;28;20100;-63
2024/01/12 09:53:01;;;;;;;11.65;1.48;;;3.80;99.90;;;;;;5058275;28;20077;-62
2024/01/12 09:55:27;;;;;;;11.10;1.40;;;4.30;99.90;;;;;;5059816;28;20053;-62
2024/01/12 09:57:54;;;;;;;8.63;1.23;;;3.40;99.90;;;;;;5058089;28;20056;-62
2024/01/12 10:00:24;;;;;;;9.65;1.30;;;3.30;99.90;;;;;;5058845;28;20041;-62
2024/01/12 10:02:50;;;;;;;11.77;1.30;;;4.20;99.90;;;;;;5060368;28;20045;-62
2024/01/12 10:05:15;;;;;;;8.23;1.23;;;3.20;99.90;;;;;;5061260;28;20095;-63
2024/01/12 10:07:41;;;;;;;16.90;2.03;;;3.60;99.90;;;;;;5080192;28;20045;-62
2024/01/12 10:10:08;;;;;;;8.88;1.40;;;3.50;99.90;;;;;;5080242;28;20094;-60
2024/01/12 10:12:34;;;;;;;9.00;1.35;;;3.00;99.90;;;;;;5045423;28;20496;-60
2024/01/12 10:15:04;;;;;;;12.55;2.75;;;4.00;99.90;;;;;;5080013;28;20097;-60
2024/01/12 10:17:31;;;;;;;11.95;1.98;;;4.30;99.90;;;;;;5062027;28;20511;-59
2024/01/12 10:19:57;;;;;;;15.70;2.10;;;3.00;99.90;;;;;;5080182;28;20055;-59
2024/01/12 10:22:22;;;;;;;13.50;1.75;;;4.30;99.90;;;;;;5079185;28;20276;-62
2024/01/12 10:24:59;;;;;;;10.15;1.45;;;4.40;99.90;;;;;;5079383;28;20043;-59
2024/01/12 10:27:25;;;;;;;13.40;2.50;;;4.50;99.90;;;;;;5077742;28;20056;-60
2024/01/12 10:29:50;;;;;;;12.88;2.00;;;3.10;99.90;;;;;;5079471;28;20037;-59
2024/01/12 10:32:19;;;;;;;9.60;1.38;;;5.00;99.90;;;;;;5061530;28;20117;-60
2024/01/12 10:34:49;;;;;;;14.25;1.92;;;3.30;99.90;;;;;;5079319;28;20120;-60
2024/01/12 10:37:17;;;;;;;13.25;1.38;;;4.60;99.90;;;;;;5078181;28;20421;-60
2024/01/12 10:39:47;;;;;;;11.65;2.70;;;4.50;99.90;;;;;;5079286;28;20079;-60
2024/01/12 10:42:14;;;;;;;10.60;1.60;;;4.50;99.90;;;;;;5078727;28;20040;-60
2024/01/12 10:44:41;;;;;;;14.80;1.80;;;4.70;99.90;;;;;;5079654;28;20079;-60
2024/01/12 10:47:15;;;;;;;10.43;1.90;;;4.70;99.90;;;;;;5079514;28;20052;-60
2024/01/12 10:49:53;;;;;;;12.25;1.73;;;3.60;99.90;;;;;;5079328;28;20481;-60
2024/01/12 10:52:21;;;;;;;7.22;1.50;;;4.90;99.90;;;;;;5079401;28;20099;-61
2024/01/12 10:55:07;;;;;;;19.92;2.45;;;4.40;99.90;;;;;;5060715;28;20309;-60
2024/01/12 10:57:33;;;;;;;14.00;1.80;;;3.30;99.90;;;;;;5060826;28;20052;-60
2024/01/12 10:59:59;;;;;;;11.50;1.92;;;4.20;99.90;;;;;;5078073;28;20056;-60
2024/01/12 11:02:26;;;;;;;18.77;3.08;;;3.40;99.90;;;;;;5061274;28;20036;-59
2024/01/12 11:04:53;;;;;;;12.98;1.75;;;4.70;99.90;;;;;;5079250;28;20447;-60
2024/01/12 11:07:20;;;;;;;15.68;1.98;;;3.30;99.90;;;;;;5060744;28;20052;-60
2024/01/12 11:09:46;;;;;;;13.25;2.10;;;4.00;99.90;;;;;;5079184;28;20776;-58
2024/01/12 11:12:31;;;;;;;19.15;2.72;;;3.40;99.90;;;;;;5077613;28;20104;-60
2024/01/12 11:14:57;;;;;;;12.57;1.85;;;3.30;99.90;;;;;;5079348;28;20052;-60
2024/01/12 11:17:30;;;;;;;14.15;2.42;;;3.80;99.90;;;;;;5079056;28;20044;-60
2024/01/12 11:20:16;;;;;;;22.30;2.55;;;3.50;99.90;;;;;;5077865;28;20055;-59
2024/01/12 11:22:46;;;;;;;20.13;2.28;;;4.20;99.90;;;;;;5078631;28;20524;-60
2024/01/12 11:25:13;;;;;;;19.50;2.10;;;5.20;99.90;;;;;;5078206;28;20108;-60
2024/01/12 11:27:40;;;;;;;14.43;1.90;;;5.10;99.90;;;;;;5078779;28;20085;-61
2024/01/12 11:30:09;;;;;;;10.98;1.55;;;3.60;99.90;;;;;;5078864;28;20599;-60
2024/01/12 11:32:35;;;;;;;15.50;2.38;;;4.20;99.90;;;;;;5079005;28;20032;-60
2024/01/12 11:35:19;;;;;;;15.88;2.88;;;5.10;99.90;;;;;;5078506;28;20079;-60
2024/01/12 11:37:47;;;;;;;20.83;4.53;;;4.70;99.90;;;;;;5078407;28;20091;-60
2024/01/12 11:40:15;;;;;;;17.02;1.75;;;3.50;99.90;;;;;;5078376;28;20037;-60
2024/01/12 11:42:42;;;;;;;16.20;3.03;;;3.60;99.90;;;;;;5078598;28;20048;-60
2024/01/12 11:45:10;;;;;;;12.63;1.60;;;3.90;99.90;;;;;;5078686;28;20063;-63
2024/01/12 11:47:39;;;;;;;17.05;2.13;;;5.00;99.90;;;;;;5078666;28;20044;-60
2024/01/12 11:50:07;;;;;;;13.98;2.25;;;4.00;99.90;;;;;;5058568;28;20071;-60
2024/01/12 11:52:32;;;;;;;12.20;2.08;;;4.00;99.90;;;;;;5059659;28;20121;-60
2024/01/12 11:54:58;;;;;;;16.77;3.30;;;5.20;99.90;;;;;;5077644;28;20401;-60
2024/01/12 11:57:27;;;;;;;17.02;1.90;;;5.20;99.90;;;;;;5077821;28;20055;-60
2024/01/12 11:59:55;;;;;;;22.33;2.60;;;5.20;99.90;;;;;;5078367;28;20044;-61
2024/01/12 12:02:23;;;;;;;16.77;2.53;;;4.60;99.90;;;;;;5074136;28;20400;-60
2024/01/12 12:04:51;;;;;;;14.43;1.88;;;3.50;99.90;;;;;;5074095;28;20105;-61
2024/01/12 12:07:19;;;;;;;13.27;2.50;;;3.70;99.90;;;;;;5073777;28;20048;-62
2024/01/12 12:09:46;;;;;;;17.42;2.35;;;4.70;99.90;;;;;;5079408;28;20063;-62
2024/01/12 12:12:12;;;;;;;14.73;2.33;;;3.80;99.90;;;;;;5081427;28;20055;-62
2024/01/12 12:14:37;;;;;;;16.38;2.17;;;4.80;99.90;;;;;;5080549;28;20048;-61
2024/01/12 12:17:03;;;;;;;11.68;2.15;;;3.50;99.90;;;;;;5081016;28;20123;-62
2024/01/12 12:19:29;;;;;;;13.13;2.50;;;3.50;99.90;;;;;;5084127;28;20111;-61
2024/01/12 12:21:56;;;;;;;11.23;1.55;;;4.20;99.90;;;;;;5084217;28;20051;-61
2024/01/12 12:24:23;;;;;;;16.92;2.20;;;4.30;99.90;;;;;;5084680;28;20041;-61
2024/01/12 12:26:49;;;;;;;13.43;2.25;;;4.20;99.90;;;;;;5066525;28;20044;-61
2024/01/12 12:29:18;;;;;;;14.95;1.95;;;5.10;99.90;;;;;;5084623;28;20421;-61
2024/01/12 12:31:44;;;;;;;15.00;2.53;;;4.10;99.90;;;;;;5083643;28;20041;-61
2024/01/12 12:34:10;;;;;;;15.82;1.83;;;3.80;99.90;;;;;;5082930;28;20500;-60
2024/01/12 12:36:36;;;;;;;19.85;2.90;;;3.50;99.90;;;;;;5084416;28;20052;-61
2024/01/12 12:39:04;;;;;;;18.67;3.55;;;3.40;99.90;;;;;;5066848;28;20029;-61
2024/01/12 12:41:31;;;;;;;10.32;2.03;;;5.10;99.90;;;;;;5084813;28;20127;-61
2024/01/12 12:43:57;;;;;;;18.27;2.33;;;3.50;99.90;;;;;;5083916;28;20032;-61
2024/01/12 12:46:27;;;;;;;19.20;2.78;;;3.90;99.90;;;;;;5084704;28;20140;-61